.
WxDataArchive / Data Records for 2013-04-06
2013-04-05 April 2013 2013-04-07

Data Records for Saturday, 06 April 2013

Time	Temp	Chill	HIndex	Humid	Dewpt	 Wind 	HiWind	WindDir	Rain 	Barom 
-----	----	-----	------	-----	-----	------	------	-------	-----	----- 
00:00	37.9	37.9	37.9	47	19.5	0	0	---	0.00	30.162 
00:05	37.6	37.6	37.6	49	20.2	0	1	292	0.00	30.162 
00:10	37.5	37.5	37.5	50	20.6	0	2	292	0.00	30.162 
00:15	37.5	37.5	37.5	51	21.0	0	1	292	0.00	30.156 
00:20	37.3	37.3	37.3	51	20.9	0	0	---	0.00	30.156 
00:25	37.2	37.2	37.2	50	20.3	0	1	292	0.00	30.156 
00:30	37.0	37.0	37.0	49	19.6	1	2	292	0.00	30.161 
00:35	37.3	37.3	37.3	48	19.4	1	2	292	0.00	30.161 
00:40	37.3	37.3	37.3	46	18.4	1	3	292	0.00	30.161 
00:45	37.5	37.5	37.5	45	18.1	1	3	315	0.00	30.167 
00:50	37.5	37.5	37.5	45	18.1	0	2	338	0.00	30.167 
00:55	37.2	37.2	37.2	45	17.8	1	3	338	0.00	30.167 
01:00	37.2	37.2	37.2	46	18.3	1	3	22	0.00	30.175 
01:05	37.0	37.0	37.0	46	18.2	0	3	22	0.00	30.175 
01:10	36.8	36.8	36.8	47	18.5	1	4	22	0.00	30.175 
01:15	36.5	36.5	36.5	48	18.7	1	4	90	0.00	30.172 
01:20	36.3	36.3	36.3	49	19.0	1	2	90	0.00	30.172 
01:25	36.2	36.2	36.2	50	19.4	1	3	90	0.00	30.172 
01:30	35.9	35.9	35.9	51	19.6	1	3	90	0.00	30.176 
01:35	35.6	35.6	35.6	52	19.7	1	2	90	0.00	30.176 
01:40	35.3	35.3	35.3	54	20.3	1	3	90	0.00	30.176 
01:45	35.2	35.2	35.2	54	20.2	1	4	90	0.00	30.173 
01:50	34.9	34.9	34.9	55	20.4	2	5	90	0.00	30.173 
01:55	34.6	34.6	34.6	56	20.5	1	3	90	0.00	30.173 
02:00	34.4	34.4	34.4	57	20.8	1	3	90	0.00	30.176 
02:05	34.3	34.3	34.3	57	20.7	2	4	90	0.00	30.176 
02:10	34.1	34.1	34.1	58	20.9	2	5	90	0.00	30.176 
02:15	33.8	33.8	33.8	58	20.6	2	5	90	0.00	30.176 
02:20	33.7	33.7	33.7	59	20.9	2	4	90	0.00	30.176 
02:25	33.5	33.5	33.5	60	21.1	2	5	90	0.00	30.176 
02:30	33.4	33.4	33.4	60	21.0	2	4	90	0.00	30.171 
02:35	33.2	33.2	33.2	61	21.2	2	3	90	0.00	30.171 
02:40	33.1	33.1	33.1	61	21.1	2	4	90	0.00	30.171 
02:45	33.1	33.1	33.1	61	21.1	2	5	90	0.00	30.166 
02:50	32.9	32.9	32.9	62	21.3	1	4	90	0.00	30.166 
02:55	32.9	32.9	32.9	62	21.3	1	4	90	0.00	30.166 
03:00	32.9	32.9	32.9	62	21.3	1	3	90	0.00	30.165 
03:05	33.1	33.1	33.1	62	21.5	2	5	90	0.00	30.165 
03:10	33.1	33.1	33.1	62	21.5	2	4	90	0.00	30.165 
03:15	33.1	33.1	33.1	63	21.9	2	4	90	0.00	30.162 
03:20	32.9	32.9	32.9	63	21.7	1	5	90	0.00	30.162 
03:25	32.9	32.9	32.9	63	21.7	2	4	90	0.00	30.162 
03:30	32.9	32.9	32.9	64	22.1	2	4	90	0.00	30.160 
03:35	32.9	32.9	32.9	64	22.1	2	5	90	0.00	30.160 
03:40	33.1	33.1	33.1	64	22.3	3	7	90	0.00	30.160 
03:45	33.1	33.1	33.1	64	22.3	2	5	90	0.00	30.161 
03:50	33.1	33.1	33.1	64	22.3	2	4	90	0.00	30.161 
03:55	33.1	33.1	33.1	65	22.6	2	4	90	0.00	30.161 
04:00	33.2	33.2	33.2	65	22.7	1	4	90	0.00	30.164 
04:05	33.2	33.2	33.2	65	22.7	1	3	90	0.00	30.164 
04:10	33.4	33.4	33.4	65	22.9	2	5	90	0.00	30.164 
04:15	33.4	33.4	33.4	65	22.9	2	4	90	0.00	30.167 
04:20	33.5	33.5	33.5	65	23.0	1	4	90	0.00	30.167 
04:25	33.5	33.5	33.5	65	23.0	1	3	90	0.00	30.167 
04:30	33.5	33.5	33.5	65	23.0	1	5	90	0.00	30.177 
04:35	33.7	33.7	33.7	65	23.2	1	5	90	0.00	30.177 
04:40	33.7	33.7	33.7	65	23.2	2	5	90	0.00	30.177 
04:45	33.8	33.8	33.8	65	23.3	1	4	90	0.00	30.176 
04:50	33.8	33.8	33.8	65	23.3	3	7	90	0.00	30.176 
04:55	33.8	33.8	33.8	65	23.3	3	7	90	0.00	30.176 
05:00	33.8	33.8	33.8	66	23.7	3	6	90	0.00	30.176 
05:05	33.8	33.8	33.8	66	23.7	2	6	90	0.00	30.176 
05:10	33.8	33.8	33.8	66	23.7	3	6	90	0.00	30.176 
05:15	33.8	33.8	33.8	66	23.7	3	6	90	0.00	30.176 
05:20	34.0	34.0	34.0	67	24.2	2	5	90	0.00	30.176 
05:25	34.0	34.0	34.0	67	24.2	2	4	90	0.00	30.176 
05:30	34.0	34.0	34.0	67	24.2	2	5	90	0.00	30.176 
05:35	34.0	34.0	34.0	67	24.2	2	5	90	0.00	30.176 
05:40	34.1	34.1	34.1	67	24.3	1	4	90	0.00	30.176 
05:45	34.1	34.1	34.1	67	24.3	1	4	90	0.00	30.184 
05:50	34.3	34.3	34.3	67	24.5	2	6	90	0.00	30.184 
05:55	34.3	34.3	34.3	67	24.5	1	5	90	0.00	30.184 
06:00	34.4	34.4	34.4	67	24.6	2	5	90	0.00	30.180 
06:05	34.4	34.4	34.4	67	24.6	2	6	90	0.00	30.180 
06:10	34.4	34.4	34.4	67	24.6	2	4	90	0.00	30.180 
06:15	34.6	34.6	34.6	67	24.8	1	4	90	0.00	30.180 
06:20	34.6	34.6	34.6	67	24.8	2	5	90	0.00	30.180 
06:25	34.4	34.4	34.4	67	24.6	2	3	90	0.00	30.180 
06:30	34.4	34.4	34.4	67	24.6	3	6	90	0.00	30.174 
06:35	34.6	34.6	34.6	67	24.8	3	6	90	0.00	30.174 
06:40	34.6	34.6	34.6	67	24.8	3	9	90	0.00	30.174 
06:45	34.6	34.6	34.6	67	24.8	2	4	90	0.00	30.184 
06:50	34.6	34.6	34.6	67	24.8	1	4	90	0.00	30.184 
06:55	34.6	34.6	34.6	67	24.8	1	5	90	0.00	30.184 
07:00	34.6	34.6	34.6	67	24.8	2	3	90	0.00	30.188 
07:05	34.4	34.4	34.4	68	24.9	3	6	90	0.00	30.188 
07:10	34.4	34.4	34.4	68	24.9	3	6	90	0.00	30.188 
07:15	34.4	34.4	34.4	68	24.9	3	6	90	0.00	30.188 
07:20	34.6	34.6	34.6	68	25.1	2	5	90	0.00	30.188 
07:25	34.6	34.6	34.6	68	25.1	2	5	90	0.00	30.188 
07:30	34.6	34.6	34.6	68	25.1	2	6	90	0.00	30.188 
07:35	34.6	34.6	34.6	68	25.1	2	5	90	0.00	30.188 
07:40	34.7	34.7	34.7	68	25.2	1	4	90	0.00	30.188 
07:45	34.7	34.7	34.7	68	25.2	1	5	90	0.00	30.196 
07:50	34.9	34.9	34.9	67	25.1	2	4	90	0.00	30.196 
07:55	35.2	35.2	35.2	66	25.0	2	6	90	0.00	30.196 
08:00	35.3	35.3	35.3	66	25.1	2	5	90	0.00	30.195 
08:05	35.6	35.6	35.6	65	25.0	2	9	112	0.00	30.195 
08:10	35.9	35.9	35.9	65	25.3	3	8	90	0.00	30.195 
08:15	36.0	36.0	36.0	65	25.4	2	5	112	0.00	30.199 
08:20	36.3	36.3	36.3	64	25.3	2	4	90	0.00	30.199 
08:25	36.5	36.5	36.5	64	25.5	1	4	90	0.00	30.199 
08:30	36.8	36.8	36.8	63	25.4	1	4	135	0.00	30.207 
08:35	37.0	37.0	37.0	62	25.2	2	6	112	0.00	30.207 
08:40	37.3	37.3	37.3	62	25.5	2	5	90	0.00	30.207 
08:45	37.8	37.8	37.8	62	26.0	3	7	112	0.00	30.197 
08:50	38.0	38.0	38.0	61	25.8	3	9	90	0.00	30.197 
08:55	38.2	38.2	38.2	59	25.2	2	6	112	0.00	30.197 
09:00	38.3	38.3	38.3	59	25.2	2	6	90	0.00	30.198 
09:05	38.5	38.5	38.5	58	25.0	2	6	90	0.00	30.198 
09:10	38.8	38.8	38.8	58	25.3	2	6	90	0.00	30.198 
09:15	39.2	39.2	39.2	57	25.3	3	7	90	0.00	30.199 
09:20	39.5	39.5	39.5	56	25.1	3	7	90	0.00	30.199 
09:25	39.9	39.9	39.9	56	25.5	3	7	90	0.00	30.199 
09:30	40.2	37.5	40.2	54	24.9	4	10	90	0.00	30.188 
09:35	40.6	40.6	40.6	54	25.3	2	5	112	0.00	30.188 
09:40	41.1	41.1	41.1	52	24.8	3	7	90	0.00	30.188 
09:45	41.2	41.2	41.2	51	24.5	2	6	90	0.00	30.186 
09:50	41.6	41.6	41.6	50	24.4	3	9	90	0.00	30.186 
09:55	41.9	41.9	41.9	50	24.6	2	5	112	0.00	30.186 
10:00	42.3	42.3	42.3	48	24.0	2	6	90	0.00	30.192 
10:05	42.6	42.6	42.6	46	23.3	2	7	90	0.00	30.192 
10:10	42.8	42.8	42.8	45	22.9	3	7	90	0.00	30.192 
10:15	43.1	43.1	43.1	45	23.2	3	7	112	0.00	30.184 
10:20	43.3	43.3	43.3	43	22.3	3	6	90	0.00	30.184 
10:25	43.8	43.8	43.8	42	22.2	2	7	90	0.00	30.184 
10:30	44.5	44.5	44.5	42	22.9	2	5	90	0.00	30.182 
10:35	45.2	45.2	45.2	41	22.9	3	7	112	0.00	30.182 
10:40	45.5	45.5	45.5	38	21.4	3	11	90	0.00	30.182 
10:45	45.7	45.7	45.7	38	21.6	2	7	90	0.00	30.181 
10:50	46.2	46.2	46.2	37	21.4	3	9	112	0.00	30.181 
10:55	46.8	46.8	46.8	37	21.9	3	9	90	0.00	30.181 
11:00	46.8	44.5	46.8	36	21.3	5	11	90	0.00	30.171 
11:05	47.0	47.0	47.0	38	22.7	3	8	90	0.00	30.171 
11:10	47.1	45.5	47.1	36	21.5	4	9	90	0.00	30.171 
11:15	47.6	46.1	47.6	36	22.0	4	10	90	0.00	30.163 
11:20	48.5	47.1	48.5	35	22.1	4	10	90	0.00	30.163 
11:25	48.6	46.6	48.6	35	22.2	5	14	90	0.00	30.163 
11:30	49.1	47.8	49.1	36	23.3	4	9	90	0.00	30.151 
11:35	49.1	47.2	49.1	35	22.6	5	10	90	0.00	30.151 
11:40	48.8	47.5	48.8	35	22.4	4	10	90	0.00	30.151 
11:45	49.1	49.1	49.1	36	23.3	3	9	90	0.00	30.146 
11:50	49.6	48.4	49.6	35	23.1	4	10	68	0.00	30.146 
11:55	49.8	48.0	49.8	35	23.3	5	10	90	0.00	30.146 
12:00	50.2	50.2	50.2	35	23.6	4	10	90	0.00	30.134 
12:05	51.0	51.0	51.0	34	23.6	4	9	90	0.00	30.134 
12:10	51.7	51.7	51.7	33	23.5	3	10	90	0.00	30.134 
12:15	51.9	51.9	51.9	33	23.7	5	11	90	0.00	30.128 
12:20	51.7	51.7	51.7	35	24.9	4	10	90	0.00	30.128 
12:25	52.2	52.2	52.2	33	24.0	4	12	112	0.00	30.128 
12:30	52.2	52.2	52.2	32	23.2	4	10	90	0.00	30.116 
12:35	52.0	52.0	52.0	33	23.8	5	12	90	0.00	30.116 
12:40	51.9	51.9	51.9	33	23.7	4	10	90	0.00	30.116 
12:45	52.0	52.0	52.0	33	23.8	4	11	112	0.00	30.105 
12:50	52.0	52.0	52.0	33	23.8	3	10	112	0.00	30.105 
12:55	52.0	52.0	52.0	34	24.5	4	9	90	0.00	30.105 
13:00	52.0	52.0	52.0	33	23.8	5	15	90	0.00	30.097 
13:05	52.3	52.3	52.3	32	23.3	4	12	90	0.00	30.097 
13:10	52.5	52.5	52.5	32	23.5	4	11	90	0.00	30.097 
13:15	52.6	52.6	52.6	33	24.3	4	12	90	0.00	30.092 
13:20	53.1	53.1	53.1	34	25.5	3	8	112	0.00	30.092 
13:25	53.3	53.3	53.3	33	24.9	4	7	90	0.00	30.092 
13:30	53.5	53.5	53.5	32	24.4	4	12	90	0.00	30.080 
13:35	53.8	53.8	53.8	32	24.6	2	6	90	0.00	30.080 
13:40	53.8	53.8	53.8	31	23.9	5	13	90	0.00	30.080 
13:45	54.1	54.1	54.1	32	24.9	4	9	90	0.00	30.078 
13:50	54.1	54.1	54.1	31	24.1	4	7	90	0.00	30.078 
13:55	54.1	54.1	54.1	32	24.9	4	10	90	0.00	30.078 
14:00	54.4	54.4	54.4	32	25.2	3	7	90	0.00	30.066 
14:05	54.5	54.5	54.5	31	24.5	4	9	90	0.00	30.066 
14:10	54.5	54.5	54.5	31	24.5	5	12	90	0.00	30.066 
14:15	54.7	54.7	54.7	31	24.7	4	13	90	0.00	30.056 
14:20	54.8	54.8	54.8	31	24.8	4	10	112	0.00	30.056 
14:25	55.0	55.0	55.0	31	24.9	4	9	90	0.00	30.056 
14:30	55.3	55.3	55.3	31	25.2	4	9	90	0.00	30.044 
14:35	55.3	55.3	55.3	31	25.2	4	11	90	0.00	30.044 
14:40	55.6	55.6	55.6	31	25.5	4	11	90	0.00	30.044 
14:45	55.7	55.7	55.7	31	25.5	5	10	90	0.00	30.030 
14:50	55.9	55.9	55.9	31	25.7	5	11	68	0.00	30.030 
14:55	56.0	56.0	56.0	31	25.8	5	12	90	0.00	30.030 
15:00	56.2	56.2	56.2	31	26.0	4	9	90	0.00	30.016 
15:05	56.3	56.3	56.3	31	26.1	5	12	90	0.00	30.016 
15:10	56.6	56.6	56.6	31	26.3	5	14	90	0.00	30.016 
15:15	57.2	57.2	57.2	31	26.8	5	12	90	0.00	29.998 
15:20	57.6	57.6	57.6	30	26.4	4	11	90	0.00	29.998 
15:25	58.0	58.0	58.0	30	26.7	4	9	90	0.00	29.998 
15:30	57.8	57.8	57.8	31	27.4	5	13	90	0.00	29.984 
15:35	57.6	57.6	57.6	30	26.4	4	12	90	0.00	29.984 
15:40	57.8	57.8	57.8	32	28.1	5	14	112	0.00	29.984 
15:45	58.0	58.0	58.0	30	26.7	5	12	90	0.00	29.970 
15:50	57.8	57.8	57.8	31	27.4	5	13	90	0.00	29.970 
15:55	58.1	58.1	58.1	31	27.6	5	10	90	0.00	29.970 
16:00	58.6	58.6	58.6	31	28.1	4	10	90	0.00	29.955 
16:05	59.0	59.0	59.0	30	27.6	4	11	90	0.00	29.955 
16:10	59.2	59.2	59.2	30	27.8	4	9	90	0.00	29.955 
16:15	59.2	59.2	59.2	31	28.6	4	9	90	0.00	29.948 
16:20	58.9	58.9	58.9	31	28.3	5	13	90	0.00	29.948 
16:25	58.9	58.9	58.9	30	27.5	4	13	90	0.00	29.948 
16:30	58.9	58.9	58.9	31	28.3	4	12	90	0.00	29.935 
16:35	58.7	58.7	58.7	31	28.1	4	9	90	0.00	29.935 
16:40	58.7	58.7	58.7	31	28.1	4	9	90	0.00	29.935 
16:45	58.7	58.7	58.7	31	28.1	4	12	90	0.00	29.921 
16:50	58.6	58.6	58.6	31	28.1	4	11	90	0.00	29.921 
16:55	58.7	58.7	58.7	31	28.1	4	9	90	0.00	29.921 
17:00	58.9	58.9	58.9	30	27.5	5	14	90	0.00	29.909 
17:05	59.0	59.0	59.0	31	28.4	5	11	90	0.00	29.909 
17:10	59.2	59.2	59.2	31	28.6	5	14	90	0.00	29.909 
17:15	59.3	59.3	59.3	30	27.9	6	14	90	0.00	29.897 
17:20	59.3	59.3	59.3	30	27.9	4	10	90	0.00	29.897 
17:25	59.5	59.5	59.5	30	28.0	4	10	90	0.00	29.897 
17:30	59.5	59.5	59.5	30	28.0	6	13	68	0.00	29.890 
17:35	59.5	59.5	59.5	30	28.0	4	10	90	0.00	29.890 
17:40	59.3	59.3	59.3	30	27.9	4	14	90	0.00	29.890 
17:45	59.3	59.3	59.3	30	27.9	4	10	90	0.00	29.887 
17:50	59.3	59.3	59.3	31	28.7	3	6	112	0.00	29.887 
17:55	59.2	59.2	59.2	30	27.8	4	10	90	0.00	29.887 
18:00	59.2	59.2	59.2	31	28.6	3	6	90	0.00	29.885 
18:05	59.2	59.2	59.2	31	28.6	3	7	90	0.00	29.885 
18:10	59.2	59.2	59.2	31	28.6	3	6	90	0.00	29.885 
18:15	59.2	59.2	59.2	31	28.6	3	7	90	0.00	29.871 
18:20	59.3	59.3	59.3	32	29.4	2	11	90	0.00	29.871 
18:25	59.3	59.3	59.3	31	28.7	3	11	90	0.00	29.871 
18:30	59.5	59.5	59.5	30	28.0	4	11	90	0.00	29.869 
18:35	59.6	59.6	59.6	31	28.9	2	7	90	0.00	29.869 
18:40	59.8	59.8	59.8	31	29.1	2	6	90	0.00	29.869 
18:45	59.8	59.8	59.8	31	29.1	3	11	112	0.00	29.863 
18:50	59.8	59.8	59.8	31	29.1	3	9	90	0.00	29.863 
18:55	59.6	59.6	59.6	31	28.9	2	7	112	0.00	29.863 
19:00	59.6	59.6	59.6	31	28.9	2	6	90	0.00	29.856 
19:05	59.6	59.6	59.6	32	29.7	2	4	90	0.00	29.856 
19:10	59.6	59.6	59.6	32	29.7	2	6	90	0.00	29.856 
19:15	59.6	59.6	59.6	33	30.5	2	6	90	0.00	29.854 
19:20	59.5	59.5	59.5	33	30.4	2	7	112	0.00	29.854 
19:25	59.5	59.5	59.5	33	30.4	1	4	112	0.00	29.854 
19:30	59.3	59.3	59.3	34	30.9	1	4	90	0.00	29.855 
19:35	59.2	59.2	59.2	34	30.8	2	5	90	0.00	29.855 
19:40	59.2	59.2	59.2	35	31.6	1	3	135	0.00	29.855 
19:45	59.2	59.2	59.2	35	31.6	0	3	135	0.00	29.855 
19:50	59.2	59.2	59.2	35	31.6	1	3	112	0.00	29.855 
19:55	59.3	59.3	59.3	35	31.7	1	4	135	0.00	29.855 
20:00	59.5	59.5	59.5	35	31.8	1	5	135	0.00	29.853 
20:05	59.6	59.6	59.6	34	31.2	2	6	90	0.00	29.853 
20:10	59.8	59.8	59.8	34	31.4	2	6	90	0.00	29.853 
20:15	59.8	59.8	59.8	33	30.6	3	11	112	0.00	29.842 
20:20	59.8	59.8	59.8	34	31.4	3	6	68	0.00	29.842 
20:25	59.8	59.8	59.8	33	30.6	3	10	90	0.00	29.842 
20:30	59.6	59.6	59.6	33	30.5	2	6	112	0.00	29.836 
20:35	59.5	59.5	59.5	34	31.1	3	6	90	0.00	29.836 
20:40	59.3	59.3	59.3	34	30.9	2	7	90	0.00	29.836 
20:45	59.2	59.2	59.2	34	30.8	2	5	68	0.00	29.836 
20:50	59.2	59.2	59.2	35	31.6	2	6	90	0.00	29.836 
20:55	58.9	58.9	58.9	35	31.3	3	9	90	0.00	29.836 
21:00	58.9	58.9	58.9	35	31.3	3	7	90	0.00	29.830 
21:05	58.7	58.7	58.7	35	31.1	3	6	112	0.00	29.830 
21:10	58.6	58.6	58.6	35	31.0	2	6	90	0.00	29.830 
21:15	58.6	58.6	58.6	36	31.7	4	8	90	0.00	29.821 
21:20	58.4	58.4	58.4	36	31.6	3	8	90	0.00	29.821 
21:25	58.3	58.3	58.3	36	31.5	2	5	112	0.00	29.821 
21:30	58.1	58.1	58.1	36	31.3	3	12	112	0.00	29.814 
21:35	58.1	58.1	58.1	37	32.0	2	7	90	0.00	29.814 
21:40	58.0	58.0	58.0	37	31.9	3	6	90	0.00	29.814 
21:45	57.8	57.8	57.8	37	31.7	2	5	112	0.00	29.802 
21:50	57.6	57.6	57.6	37	31.5	3	7	112	0.00	29.802 
21:55	57.5	57.5	57.5	38	32.1	3	11	112	0.00	29.802 
22:00	57.5	57.5	57.5	38	32.1	3	11	90	0.00	29.801 
22:05	57.3	57.3	57.3	38	31.9	2	9	112	0.00	29.801 
22:10	57.3	57.3	57.3	39	32.6	3	7	90	0.00	29.801 
22:15	57.3	57.3	57.3	39	32.6	3	7	112	0.00	29.797 
22:20	57.3	57.3	57.3	39	32.6	2	5	90	0.00	29.797 
22:25	57.3	57.3	57.3	39	32.6	3	6	112	0.00	29.797 
22:30	57.3	57.3	57.3	39	32.6	3	5	90	0.00	29.792 
22:35	57.3	57.3	57.3	40	33.2	3	8	90	0.00	29.792 
22:40	57.5	57.5	57.5	40	33.4	3	10	112	0.00	29.792 
22:45	57.5	57.5	57.5	40	33.4	3	7	90	0.00	29.783 
22:50	57.3	57.3	57.3	41	33.8	3	6	112	0.00	29.783 
22:55	57.3	57.3	57.3	41	33.8	2	6	90	0.00	29.783 
23:00	57.3	57.3	57.3	41	33.8	2	6	90	0.00	29.785 
23:05	57.3	57.3	57.3	41	33.8	3	5	90	0.00	29.785 
23:10	57.5	57.5	57.5	41	34.0	2	6	112	0.00	29.785 
23:15	57.5	57.5	57.5	42	34.6	3	7	90	0.00	29.779 
23:20	57.8	57.8	57.8	42	34.9	3	6	90	0.00	29.779 
23:25	58.0	58.0	58.0	42	35.0	1	4	90	0.00	29.779 
23:30	58.0	58.0	58.0	42	35.0	1	4	90	0.00	29.774 
23:35	58.1	58.1	58.1	42	35.1	2	6	90	0.00	29.774 
23:40	58.4	58.4	58.4	42	35.4	3	7	112	0.00	29.774 
23:45	58.6	58.6	58.6	42	35.6	1	5	90	0.00	29.765 
23:50	58.7	58.7	58.7	42	35.7	1	4	68	0.00	29.765 
23:55	58.9	58.9	58.9	42	35.9	1	6	248	0.00	29.765 

CoCoRaHS
IN-AL-39
A2 Web Hosting
Creative Commons License
GoDaddy
search engine by freefind advanced

loaded 2018-11-17 13:02:22 • last modified 2010-11-18 10:43:29
Privacy PolicyDisclaimer
• wx.awcolley.com is powered by PmWiki v.2002016 •
• all content (unless otherwise noted) © 2018 A W Colley